Time;durP1;ratioP1;P1;durP2;ratioP2;P2;SDS_P1;SDS_P2;PMS_P1;PMS_P2;Temp;Humidity;BMP_temperature;BMP_pressure;BME280_temperature;BME280_humidity;BME280_pressure;Samples;Min_cycle;Max_cycle;Signal;HPM_P1;HPM_P2
2023/03/27 00:01:11;;;;;;;7.97;2.25;;;2.70;99.90;;;;;;5049132;28;20481;-64
2023/03/27 00:03:38;;;;;;;4.88;2.20;;;2.70;99.90;;;;;;5035677;28;20045;-63
2023/03/27 00:06:17;;;;;;;7.53;2.15;;;2.70;99.90;;;;;;5053800;28;20063;-64
2023/03/27 00:08:46;;;;;;;9.07;2.55;;;2.70;99.90;;;;;;5053946;28;20064;-64
2023/03/27 00:11:14;;;;;;;5.00;1.88;;;2.70;99.90;;;;;;5052878;28;20575;-63
2023/03/27 00:13:43;;;;;;;6.47;2.20;;;2.70;99.90;;;;;;5035683;28;20068;-63
2023/03/27 00:16:10;;;;;;;6.90;2.67;;;2.70;99.90;;;;;;5035420;28;20389;-64
2023/03/27 00:18:37;;;;;;;5.75;2.40;;;2.70;99.90;;;;;;5035775;28;20389;-64
2023/03/27 00:21:03;;;;;;;4.88;2.28;;;2.70;99.90;;;;;;5050915;28;20342;-64
2023/03/27 00:23:31;;;;;;;6.88;1.90;;;2.60;99.90;;;;;;5055616;28;20178;-64
2023/03/27 00:26:01;;;;;;;6.15;2.20;;;2.60;99.90;;;;;;5055619;28;20053;-65
2023/03/27 00:28:29;;;;;;;8.40;2.58;;;2.60;99.90;;;;;;5055949;28;20428;-65
2023/03/27 00:30:56;;;;;;;4.88;1.83;;;2.60;99.90;;;;;;5051443;28;20056;-65
2023/03/27 00:33:24;;;;;;;7.32;1.85;;;2.60;99.90;;;;;;5070793;28;20055;-65
2023/03/27 00:35:55;;;;;;;4.05;1.58;;;2.60;99.90;;;;;;5055421;28;20049;-65
2023/03/27 00:38:23;;;;;;;5.63;1.58;;;2.50;99.90;;;;;;5037058;28;20122;-65
2023/03/27 00:40:52;;;;;;;4.45;1.70;;;2.50;99.90;;;;;;5035517;28;20531;-64
2023/03/27 00:43:19;;;;;;;4.35;1.55;;;2.60;99.90;;;;;;5052806;28;20059;-64
2023/03/27 00:45:46;;;;;;;5.97;1.75;;;2.60;99.90;;;;;;5055278;28;20264;-64
2023/03/27 00:48:20;;;;;;;8.10;1.73;;;2.50;99.90;;;;;;5055116;28;20078;-63
2023/03/27 00:50:48;;;;;;;7.75;2.70;;;2.60;99.90;;;;;;5054382;28;20044;-64
2023/03/27 00:53:20;;;;;;;6.07;1.65;;;2.60;99.90;;;;;;5055427;28;20056;-64
2023/03/27 00:55:50;;;;;;;5.75;1.80;;;2.60;99.90;;;;;;5055820;28;20049;-65
2023/03/27 00:58:21;;;;;;;5.95;1.45;;;2.60;99.90;;;;;;5055974;28;20048;-64
2023/03/27 01:00:53;;;;;;;4.35;2.10;;;2.50;99.90;;;;;;5072048;28;20060;-64
2023/03/27 01:03:22;;;;;;;9.65;2.05;;;2.60;99.90;;;;;;5054061;28;20064;-64
2023/03/27 01:05:49;;;;;;;2.53;1.30;;;2.50;99.90;;;;;;5054990;28;20468;-64
2023/03/27 01:08:16;;;;;;;8.15;1.75;;;2.50;99.90;;;;;;5055267;28;20064;-64
2023/03/27 01:11:18;;;;;;;4.68;1.60;;;2.50;99.90;;;;;;5054792;28;20056;-65
2023/03/27 01:14:04;;;;;;;4.38;1.65;;;2.50;99.90;;;;;;5072588;28;20106;-64
2023/03/27 01:17:12;;;;;;;5.63;1.60;;;2.50;99.90;;;;;;5054383;28;20129;-64
2023/03/27 01:20:26;;;;;;;4.90;2.10;;;2.40;99.90;;;;;;5051620;28;20528;-64
2023/03/27 01:22:59;;;;;;;9.32;2.63;;;2.40;99.90;;;;;;5051737;28;20055;-65
2023/03/27 01:25:48;;;;;;;5.60;1.98;;;2.30;99.90;;;;;;5034865;28;20041;-64
2023/03/27 01:28:36;;;;;;;4.07;1.50;;;2.30;99.90;;;;;;5034385;28;20052;-65
2023/03/27 01:31:09;;;;;;;6.03;1.70;;;2.40;99.90;;;;;;5034466;28;20523;-64
2023/03/27 01:34:13;;;;;;;6.53;1.88;;;2.30;99.90;;;;;;5052129;28;20045;-64
2023/03/27 01:37:11;;;;;;;8.50;1.83;;;2.30;99.90;;;;;;5034736;28;20065;-64
2023/03/27 01:40:03;;;;;;;6.57;2.47;;;2.30;99.90;;;;;;5051572;28;20056;-64
2023/03/27 01:42:47;;;;;;;6.72;2.13;;;2.30;99.90;;;;;;5034328;28;20049;-64
2023/03/27 01:45:28;;;;;;;10.77;2.75;;;2.30;99.90;;;;;;5018133;28;20064;-64
2023/03/27 01:48:18;;;;;;;4.40;1.80;;;2.30;99.90;;;;;;5034688;28;20527;-63
2023/03/27 01:50:50;;;;;;;6.82;2.20;;;2.30;99.90;;;;;;5051944;28;20059;-64
2023/03/27 01:53:31;;;;;;;4.90;1.67;;;2.30;99.90;;;;;;5034375;28;20106;-64
2023/03/27 01:56:17;;;;;;;5.10;1.92;;;2.30;99.90;;;;;;5034454;28;20060;-64
2023/03/27 01:58:51;;;;;;;6.47;2.42;;;2.40;99.90;;;;;;5051836;28;20439;-64
2023/03/27 02:01:22;;;;;;;6.85;2.05;;;2.30;99.90;;;;;;5033778;28;20049;-65
2023/03/27 02:03:53;;;;;;;3.72;1.67;;;2.30;99.90;;;;;;4998742;28;20041;-63
2023/03/27 02:06:32;;;;;;;8.40;1.98;;;2.30;99.90;;;;;;4998693;28;20049;-64
2023/03/27 02:09:10;;;;;;;3.53;1.52;;;2.40;99.90;;;;;;5014892;28;20057;-63
2023/03/27 02:12:03;;;;;;;4.53;1.63;;;2.30;99.90;;;;;;5016909;28;20417;-62
2023/03/27 02:14:35;;;;;;;11.48;2.28;;;2.30;99.90;;;;;;5034497;28;20057;-64
2023/03/27 02:17:08;;;;;;;5.57;1.92;;;2.20;99.90;;;;;;5033921;28;20045;-63
2023/03/27 02:19:51;;;;;;;4.00;1.95;;;2.30;99.90;;;;;;5049946;28;20375;-65
2023/03/27 02:22:19;;;;;;;3.58;1.33;;;2.30;99.90;;;;;;5060054;28;20447;-64
2023/03/27 02:24:47;;;;;;;6.25;2.60;;;2.30;99.90;;;;;;5054380;28;20048;-63
2023/03/27 02:27:32;;;;;;;4.63;1.45;;;2.20;99.90;;;;;;5071947;28;20045;-64
2023/03/27 02:30:04;;;;;;;3.78;1.63;;;2.20;99.90;;;;;;5071706;28;20048;-63
2023/03/27 02:32:52;;;;;;;5.60;1.75;;;2.20;99.90;;;;;;5071523;28;20041;-63
2023/03/27 02:35:39;;;;;;;4.60;1.60;;;2.20;99.90;;;;;;5031682;28;20415;-64
2023/03/27 02:38:17;;;;;;;5.22;1.70;;;2.20;99.90;;;;;;5072206;28;20056;-65
2023/03/27 02:41:07;;;;;;;3.25;1.60;;;2.20;99.90;;;;;;5075045;28;20053;-64
2023/03/27 02:43:44;;;;;;;2.88;1.40;;;2.20;99.90;;;;;;5074969;28;20044;-65
2023/03/27 02:46:31;;;;;;;4.60;2.05;;;2.20;99.90;;;;;;5076487;28;20106;-64
2023/03/27 02:49:01;;;;;;;4.93;1.45;;;2.20;99.90;;;;;;5074219;28;20139;-64
2023/03/27 02:51:35;;;;;;;6.13;1.42;;;2.20;99.90;;;;;;5073817;28;20053;-64
2023/03/27 02:54:07;;;;;;;6.50;1.58;;;2.40;99.90;;;;;;5075907;28;20144;-64
2023/03/27 02:56:39;;;;;;;6.05;1.75;;;2.40;99.90;;;;;;5074127;28;20044;-64
2023/03/27 02:59:09;;;;;;;4.72;1.33;;;2.40;99.90;;;;;;5075198;28;20514;-64
2023/03/27 03:01:37;;;;;;;3.58;1.50;;;2.50;99.90;;;;;;5073472;28;20299;-64
2023/03/27 03:04:20;;;;;;;4.22;1.20;;;2.50;99.90;;;;;;5074243;28;20044;-65
2023/03/27 03:06:49;;;;;;;3.63;1.10;;;2.50;99.90;;;;;;5074374;28;20056;-63
2023/03/27 03:09:17;;;;;;;5.13;1.77;;;2.60;99.90;;;;;;5073925;28;20067;-64
2023/03/27 03:11:50;;;;;;;2.60;1.08;;;2.70;99.90;;;;;;5074394;28;20055;-64
2023/03/27 03:14:20;;;;;;;5.00;2.13;;;2.80;99.90;;;;;;5073854;28;20057;-65
2023/03/27 03:16:46;;;;;;;5.22;1.50;;;2.70;99.90;;;;;;5073860;28;20059;-64
2023/03/27 03:19:12;;;;;;;3.85;1.40;;;2.60;99.90;;;;;;5073685;28;20060;-65
2023/03/27 03:21:39;;;;;;;2.10;1.02;;;2.50;99.90;;;;;;5071731;28;20078;-64
2023/03/27 03:24:06;;;;;;;4.70;1.48;;;2.50;99.90;;;;;;5074768;28;20056;-64
2023/03/27 03:26:39;;;;;;;3.15;1.30;;;2.40;99.90;;;;;;5074817;28;20049;-65
2023/03/27 03:29:06;;;;;;;3.03;1.55;;;2.30;99.90;;;;;;5056636;28;20248;-64
2023/03/27 03:31:42;;;;;;;2.97;1.73;;;2.30;99.90;;;;;;5056010;28;20055;-64
2023/03/27 03:34:14;;;;;;;6.18;2.08;;;2.40;99.90;;;;;;5056529;28;20053;-64
2023/03/27 03:36:43;;;;;;;5.38;1.38;;;2.40;99.90;;;;;;5074367;28;20063;-63
2023/03/27 03:39:11;;;;;;;4.95;1.50;;;2.60;99.90;;;;;;5074493;28;20044;-63
2023/03/27 03:41:37;;;;;;;4.13;1.30;;;2.70;99.90;;;;;;5054284;28;20051;-65
2023/03/27 03:44:03;;;;;;;2.92;1.42;;;2.70;99.90;;;;;;5052495;28;20468;-64
2023/03/27 03:46:36;;;;;;;3.47;1.10;;;2.70;99.90;;;;;;5072987;28;20052;-63
2023/03/27 03:49:03;;;;;;;2.65;1.33;;;2.70;99.90;;;;;;5073454;28;20048;-64
2023/03/27 03:51:36;;;;;;;2.33;1.20;;;2.60;99.90;;;;;;5072773;28;20041;-64
2023/03/27 03:54:05;;;;;;;5.20;1.80;;;2.50;99.90;;;;;;5053110;28;20426;-64
2023/03/27 03:56:33;;;;;;;4.18;1.35;;;2.50;99.90;;;;;;5061291;28;20151;-64
2023/03/27 03:58:59;;;;;;;3.72;1.42;;;2.50;99.90;;;;;;5073573;28;20483;-63
2023/03/27 04:01:26;;;;;;;6.05;1.40;;;2.40;99.90;;;;;;5063387;28;20041;-63
2023/03/27 04:03:53;;;;;;;3.35;1.13;;;2.30;99.90;;;;;;5066502;28;20056;-63
2023/03/27 04:06:26;;;;;;;3.53;1.55;;;2.30;99.90;;;;;;5072956;28;20047;-63
2023/03/27 04:08:52;;;;;;;7.60;1.65;;;2.30;99.90;;;;;;5064481;28;20392;-64
2023/03/27 04:11:19;;;;;;;6.55;1.70;;;2.20;99.90;;;;;;5066312;28;20063;-63
2023/03/27 04:13:45;;;;;;;5.30;1.73;;;2.20;99.90;;;;;;5072729;28;20052;-64
2023/03/27 04:16:12;;;;;;;3.83;1.42;;;2.10;99.90;;;;;;5064003;28;20172;-64
2023/03/27 04:18:39;;;;;;;4.97;1.80;;;2.10;99.90;;;;;;5073126;28;20427;-64
2023/03/27 04:21:16;;;;;;;4.18;1.85;;;2.10;99.90;;;;;;5071984;28;20381;-65
2023/03/27 04:23:50;;;;;;;2.97;1.20;;;2.00;99.90;;;;;;5096156;28;20051;-64
2023/03/27 04:26:16;;;;;;;3.97;1.30;;;2.00;99.90;;;;;;5094942;28;20148;-64
2023/03/27 04:28:51;;;;;;;4.35;1.50;;;2.00;99.90;;;;;;5072920;28;20375;-64
2023/03/27 04:31:17;;;;;;;2.30;1.30;;;2.00;99.90;;;;;;5063197;28;20045;-64
2023/03/27 04:33:45;;;;;;;5.10;1.55;;;1.90;99.90;;;;;;5066442;28;20449;-65
2023/03/27 04:36:15;;;;;;;4.72;1.60;;;2.00;99.90;;;;;;5073077;28;20053;-63
2023/03/27 04:38:41;;;;;;;3.08;1.75;;;2.00;99.90;;;;;;5073522;28;20041;-64
2023/03/27 04:41:08;;;;;;;3.60;1.35;;;1.90;99.90;;;;;;5071742;28;20055;-63
2023/03/27 04:43:40;;;;;;;5.97;1.67;;;1.90;99.90;;;;;;5072893;28;20048;-63
2023/03/27 04:46:07;;;;;;;3.72;1.38;;;2.00;99.90;;;;;;5073085;28;20052;-63
2023/03/27 04:48:37;;;;;;;3.80;1.40;;;2.00;99.90;;;;;;5072351;28;20048;-65
2023/03/27 04:51:05;;;;;;;4.93;1.58;;;2.10;99.90;;;;;;5071890;28;20067;-65
2023/03/27 04:53:33;;;;;;;6.35;1.63;;;2.00;99.90;;;;;;5071637;28;20049;-64
2023/03/27 04:56:00;;;;;;;6.70;1.75;;;2.00;99.90;;;;;;5067971;28;20077;-65
2023/03/27 04:58:27;;;;;;;6.10;1.60;;;1.90;99.90;;;;;;5072996;28;20045;-63
2023/03/27 05:00:54;;;;;;;7.20;1.70;;;2.00;99.90;;;;;;5054867;28;20392;-65
2023/03/27 05:03:22;;;;;;;7.90;1.45;;;1.90;99.90;;;;;;5067547;28;20465;-65
2023/03/27 05:05:49;;;;;;;5.90;1.67;;;1.90;99.90;;;;;;5071646;28;20044;-64
2023/03/27 05:08:16;;;;;;;5.72;2.10;;;1.90;99.90;;;;;;5054687;28;20488;-64
2023/03/27 05:10:44;;;;;;;3.13;1.25;;;1.90;99.90;;;;;;5071448;28;20063;-64
2023/03/27 05:13:11;;;;;;;8.15;2.00;;;1.80;99.90;;;;;;5071346;28;20056;-64
2023/03/27 05:15:37;;;;;;;4.63;1.50;;;1.90;99.90;;;;;;5065801;28;20056;-64
2023/03/27 05:18:06;;;;;;;9.48;1.77;;;1.90;99.90;;;;;;5054910;28;20484;-63
2023/03/27 05:20:38;;;;;;;8.27;2.33;;;1.90;99.90;;;;;;5050839;28;20076;-63
2023/03/27 05:23:09;;;;;;;4.03;2.05;;;1.90;99.90;;;;;;5064561;28;20376;-65
2023/03/27 05:25:38;;;;;;;6.97;1.63;;;2.00;99.90;;;;;;5050523;28;20063;-64
2023/03/27 05:28:04;;;;;;;5.82;2.13;;;2.00;99.90;;;;;;5068085;28;20113;-65
2023/03/27 05:30:31;;;;;;;;;;;2.00;99.90;;;;;;5071795;28;20048;-65
2023/03/27 05:32:58;;;;;;;5.22;2.08;;;2.10;99.90;;;;;;5052512;28;19932;-65
2023/03/27 05:35:25;;;;;;;6.30;2.47;;;2.10;99.90;;;;;;5070081;28;20052;-66
2023/03/27 05:37:52;;;;;;;6.40;2.78;;;2.10;99.90;;;;;;5069960;28;20310;-64
2023/03/27 05:40:23;;;;;;;8.85;2.67;;;2.10;99.90;;;;;;5068649;28;20052;-66
2023/03/27 05:42:57;;;;;;;8.50;2.78;;;2.10;99.90;;;;;;5067545;28;20048;-65
2023/03/27 05:45:23;;;;;;;9.73;3.30;;;2.20;99.90;;;;;;5051326;28;20045;-67
2023/03/27 05:47:56;;;;;;;6.40;2.67;;;2.20;99.90;;;;;;5068952;28;20053;-65
2023/03/27 05:50:25;;;;;;;8.90;2.30;;;2.30;99.90;;;;;;5068770;28;20542;-65
2023/03/27 05:52:56;;;;;;;9.05;2.42;;;2.30;99.90;;;;;;5052756;28;20064;-66
2023/03/27 05:55:22;;;;;;;8.43;2.88;;;2.40;99.90;;;;;;5069731;28;20057;-65
2023/03/27 05:57:48;;;;;;;11.70;2.47;;;2.50;99.90;;;;;;5071421;28;20044;-64
2023/03/27 06:00:24;;;;;;;;;;;2.50;99.90;;;;;;5071045;28;20052;-65
2023/03/27 06:02:55;;;;;;;6.72;2.67;;;2.70;99.90;;;;;;5070803;28;19982;-65
2023/03/27 06:05:21;;;;;;;6.80;2.67;;;3.00;99.90;;;;;;5071799;28;20051;-65
2023/03/27 06:07:47;;;;;;;5.93;1.90;;;3.20;99.90;;;;;;5070956;28;20052;-66
2023/03/27 06:10:16;;;;;;;;;;;3.60;99.90;;;;;;5071504;28;20049;-64
2023/03/27 06:12:44;;;;;;;4.97;1.67;;;4.00;99.90;;;;;;5096244;28;19931;-65
2023/03/27 06:15:10;;;;;;;6.13;1.60;;;4.40;99.90;;;;;;5054616;28;20053;-64
2023/03/27 06:17:39;;;;;;;8.68;2.30;;;4.70;99.90;;;;;;5055227;28;20056;-66
2023/03/27 06:20:10;;;;;;;5.18;1.80;;;4.90;99.90;;;;;;5057510;28;20053;-66
2023/03/27 06:23:00;;;;;;;7.50;2.00;;;5.00;99.90;;;;;;5057533;28;20052;-65
2023/03/27 06:25:31;;;;;;;3.70;1.60;;;5.00;99.90;;;;;;5057960;28;20055;-65
2023/03/27 06:27:57;;;;;;;6.13;1.60;;;5.20;99.90;;;;;;5058365;28;20049;-66
2023/03/27 06:30:25;;;;;;;6.22;1.83;;;5.20;99.90;;;;;;5057487;28;20054;-65
2023/03/27 06:32:57;;;;;;;6.78;2.30;;;5.30;99.90;;;;;;5053231;28;20057;-66
2023/03/27 06:35:28;;;;;;;6.53;2.33;;;5.40;99.90;;;;;;5075630;28;20480;-65
2023/03/27 06:37:57;;;;;;;11.23;5.68;;;5.50;99.90;;;;;;5057665;28;20060;-65
2023/03/27 06:40:26;;;;;;;16.65;8.80;;;5.60;99.90;;;;;;5075215;28;20105;-66
2023/03/27 06:43:01;;;;;;;10.35;5.85;;;5.60;99.90;;;;;;5053478;28;20048;-65
2023/03/27 06:45:32;;;;;;;6.13;3.53;;;5.70;99.90;;;;;;5057771;28;20044;-65
2023/03/27 06:48:01;;;;;;;5.35;2.20;;;5.70;99.90;;;;;;5057692;28;20125;-65
2023/03/27 06:50:29;;;;;;;4.60;2.25;;;5.80;99.90;;;;;;5074787;28;20067;-66
2023/03/27 06:52:55;;;;;;;4.57;1.80;;;5.90;99.90;;;;;;5052997;28;20056;-66
2023/03/27 06:55:23;;;;;;;5.00;1.60;;;6.00;99.90;;;;;;5066658;28;20044;-66
2023/03/27 06:57:53;;;;;;;5.78;2.10;;;5.80;99.90;;;;;;5064681;28;20048;-65
2023/03/27 07:00:27;;;;;;;5.00;1.85;;;5.70;99.90;;;;;;5054356;28;20055;-65
2023/03/27 07:02:55;;;;;;;8.95;3.65;;;5.50;99.90;;;;;;5048003;28;20044;-65
2023/03/27 07:05:23;;;;;;;4.85;2.33;;;5.30;99.90;;;;;;5057242;28;20386;-65
2023/03/27 07:07:49;;;;;;;5.45;1.70;;;5.20;99.90;;;;;;5057731;28;20052;-65
2023/03/27 07:10:17;;;;;;;4.63;1.50;;;5.20;99.90;;;;;;5057122;28;20044;-65
2023/03/27 07:12:49;;;;;;;7.60;2.20;;;5.30;99.90;;;;;;5074524;28;20064;-65
2023/03/27 07:15:16;;;;;;;6.70;2.05;;;5.30;99.90;;;;;;5057240;28;20060;-65
2023/03/27 07:17:43;;;;;;;4.38;1.63;;;5.30;99.90;;;;;;5056769;28;20445;-65
2023/03/27 07:20:11;;;;;;;5.60;2.42;;;5.30;99.90;;;;;;5056351;28;20057;-65
2023/03/27 07:22:41;;;;;;;5.20;1.60;;;5.40;99.90;;;;;;5061738;28;20110;-65
2023/03/27 07:25:11;;;;;;;4.88;1.90;;;5.50;99.90;;;;;;5072351;28;20049;-65
2023/03/27 07:27:38;;;;;;;4.55;1.67;;;5.60;99.90;;;;;;5057018;28;20087;-64
2023/03/27 07:30:06;;;;;;;5.80;2.60;;;5.60;99.90;;;;;;5056347;28;20374;-65
2023/03/27 07:32:36;;;;;;;6.70;2.17;;;5.70;99.90;;;;;;5073100;28;20056;-65
2023/03/27 07:35:09;;;;;;;8.70;2.70;;;5.80;99.90;;;;;;5040092;28;20048;-65
2023/03/27 07:37:38;;;;;;;9.27;2.88;;;5.80;99.90;;;;;;5056568;28;20041;-66
2023/03/27 07:40:11;;;;;;;7.22;2.55;;;5.80;99.90;;;;;;5066727;28;20049;-65
2023/03/27 07:42:37;;;;;;;6.78;1.77;;;5.90;99.90;;;;;;5070552;28;20072;-65
2023/03/27 07:45:04;;;;;;;6.07;2.35;;;6.00;99.90;;;;;;5074144;28;20060;-64
2023/03/27 07:47:31;;;;;;;9.48;2.00;;;6.00;99.90;;;;;;5073080;28;20056;-65
2023/03/27 07:50:04;;;;;;;8.75;2.55;;;5.90;99.90;;;;;;5072645;28;20044;-65
2023/03/27 07:52:34;;;;;;;6.35;1.95;;;6.00;99.90;;;;;;5072254;28;20044;-65
2023/03/27 07:55:01;;;;;;;7.85;2.60;;;6.10;99.90;;;;;;5072608;28;20048;-65
2023/03/27 07:57:30;;;;;;;7.30;2.03;;;6.20;99.90;;;;;;5073039;28;20056;-65
2023/03/27 07:59:56;;;;;;;9.98;3.10;;;6.30;99.90;;;;;;5072449;28;20047;-66
2023/03/27 08:02:24;;;;;;;9.77;3.22;;;6.40;99.90;;;;;;5072752;28;20045;-66
2023/03/27 08:04:53;;;;;;;9.70;2.20;;;6.40;99.90;;;;;;5073206;28;20106;-65
2023/03/27 08:07:21;;;;;;;6.03;1.67;;;6.50;99.90;;;;;;5074052;28;20102;-66
2023/03/27 08:09:47;;;;;;;6.03;2.35;;;6.50;99.90;;;;;;5073396;28;20063;-65
2023/03/27 08:12:14;;;;;;;4.97;2.53;;;6.50;99.90;;;;;;5105483;28;20044;-65
2023/03/27 08:14:40;;;;;;;6.28;2.42;;;6.50;99.90;;;;;;5056399;28;20090;-65
2023/03/27 08:17:14;;;;;;;13.32;2.58;;;6.50;99.90;;;;;;5055718;28;20603;-65
2023/03/27 08:19:40;;;;;;;6.93;1.63;;;6.60;99.90;;;;;;5059108;28;20052;-65
2023/03/27 08:22:07;;;;;;;5.28;1.60;;;6.80;99.90;;;;;;5072246;28;20455;-65
2023/03/27 08:24:34;;;;;;;9.68;2.17;;;6.70;99.90;;;;;;5073568;28;20510;-65
2023/03/27 08:27:02;;;;;;;4.50;1.33;;;6.60;99.90;;;;;;5072200;28;20048;-64
2023/03/27 08:29:31;;;;;;;9.68;1.60;;;6.80;99.90;;;;;;5054825;28;20061;-65
2023/03/27 08:31:58;;;;;;;8.65;2.70;;;7.00;99.90;;;;;;5068877;28;20475;-65
2023/03/27 08:34:26;;;;;;;6.93;2.20;;;6.90;99.90;;;;;;5072340;28;20079;-65
2023/03/27 08:36:53;;;;;;;5.78;2.42;;;6.80;99.90;;;;;;5067608;28;20051;-65
2023/03/27 08:39:21;;;;;;;7.22;1.65;;;6.60;99.90;;;;;;5055308;28;20053;-66
2023/03/27 08:41:56;;;;;;;7.47;2.08;;;6.40;99.90;;;;;;5073055;28;20345;-66
2023/03/27 08:44:24;;;;;;;5.10;2.22;;;6.10;99.90;;;;;;5071435;28;20044;-66
2023/03/27 08:47:12;;;;;;;3.42;1.60;;;6.00;99.90;;;;;;5072145;28;20341;-66
2023/03/27 08:49:53;;;;;;;1.42;0.85;;;6.10;99.90;;;;;;5072477;28;20051;-65
2023/03/27 08:52:23;;;;;;;3.38;1.00;;;6.10;99.90;;;;;;5071864;28;20491;-65
2023/03/27 08:54:57;;;;;;;2.58;1.13;;;6.20;99.90;;;;;;5072107;28;20067;-66
2023/03/27 08:57:27;;;;;;;2.72;1.20;;;6.40;99.90;;;;;;5072172;28;20040;-65
2023/03/27 08:59:58;;;;;;;2.33;1.10;;;6.40;99.90;;;;;;5071603;28;20106;-65
2023/03/27 09:02:51;;;;;;;4.95;1.85;;;6.30;99.90;;;;;;5067285;28;20056;-65
2023/03/27 09:05:42;;;;;;;5.68;2.00;;;6.50;99.90;;;;;;5071810;28;20106;-66
2023/03/27 09:08:39;;;;;;;5.47;1.60;;;6.70;99.90;;;;;;5071916;28;20121;-66
2023/03/27 09:11:17;;;;;;;8.30;3.00;;;6.60;99.90;;;;;;5054755;28;20372;-65
2023/03/27 09:13:51;;;;;;;8.02;2.65;;;6.70;99.90;;;;;;5071459;28;20114;-65
2023/03/27 09:16:24;;;;;;;8.73;3.40;;;6.60;99.90;;;;;;5071569;28;20127;-64
2023/03/27 09:19:14;;;;;;;7.05;2.70;;;6.60;99.90;;;;;;5072461;28;20117;-65
2023/03/27 09:21:49;;;;;;;;;;;6.60;99.90;;;;;;5071777;28;20056;-65
2023/03/27 09:24:30;;;;;;;7.97;1.98;;;6.60;99.90;;;;;;5101788;28;19920;-65
2023/03/27 09:26:58;;;;;;;8.40;2.88;;;6.50;99.90;;;;;;5071979;28;20102;-65
2023/03/27 09:29:28;;;;;;;8.60;2.45;;;6.40;99.90;;;;;;5071135;28;20045;-65
2023/03/27 09:31:57;;;;;;;6.38;1.85;;;6.50;99.90;;;;;;5071747;28;20075;-65
2023/03/27 09:34:33;;;;;;;7.10;1.50;;;6.10;99.90;;;;;;5071146;28;20052;-65
2023/03/27 09:37:01;;;;;;;5.80;1.90;;;6.10;99.90;;;;;;5057270;28;20439;-65
2023/03/27 09:39:31;;;;;;;9.32;1.92;;;6.00;99.90;;;;;;5050644;28;20040;-64
2023/03/27 09:42:05;;;;;;;5.03;1.95;;;6.10;99.90;;;;;;5053009;28;20083;-65
2023/03/27 09:44:41;;;;;;;4.47;1.38;;;6.10;99.90;;;;;;5071082;28;20048;-65
2023/03/27 09:47:21;;;;;;;8.07;2.33;;;6.00;99.90;;;;;;5070486;28;20060;-65
2023/03/27 09:49:53;;;;;;;7.45;1.48;;;6.00;99.90;;;;;;5071129;28;20045;-65
2023/03/27 09:52:35;;;;;;;8.52;1.75;;;6.20;99.90;;;;;;5071125;28;20072;-64
2023/03/27 09:55:04;;;;;;;6.70;1.90;;;6.40;99.90;;;;;;5071399;28;20045;-66
2023/03/27 09:57:34;;;;;;;5.82;1.30;;;6.60;99.90;;;;;;5054893;28;20040;-65
2023/03/27 10:00:08;;;;;;;5.80;1.85;;;6.80;99.90;;;;;;5071007;28;20463;-65
2023/03/27 10:02:36;;;;;;;4.35;1.40;;;7.00;99.90;;;;;;5071091;28;20056;-65
2023/03/27 10:05:10;;;;;;;5.50;1.50;;;7.10;99.90;;;;;;5070957;28;20048;-65
2023/03/27 10:07:39;;;;;;;6.45;2.67;;;7.10;99.90;;;;;;5071103;28;20049;-65
2023/03/27 10:10:14;;;;;;;5.28;1.67;;;7.20;99.90;;;;;;5053888;28;20063;-65
2023/03/27 10:12:41;;;;;;;8.90;1.67;;;7.30;99.90;;;;;;5071513;28;20483;-65
2023/03/27 10:15:35;;;;;;;5.57;1.75;;;7.30;99.90;;;;;;5070839;28;20044;-65
2023/03/27 10:18:06;;;;;;;7.18;2.83;;;7.30;99.90;;;;;;5070830;28;20106;-65
2023/03/27 10:20:33;;;;;;;4.70;1.98;;;7.20;99.90;;;;;;5069074;28;20052;-65
2023/03/27 10:23:08;;;;;;;3.05;1.30;;;7.10;99.90;;;;;;5053830;28;20056;-65
2023/03/27 10:25:50;;;;;;;4.70;1.52;;;7.10;99.90;;;;;;5072131;28;20381;-65
2023/03/27 10:28:43;;;;;;;6.07;1.40;;;7.30;99.90;;;;;;5055441;28;20106;-66
2023/03/27 10:31:26;;;;;;;4.57;1.00;;;7.50;99.90;;;;;;5053161;28;20060;-65
2023/03/27 10:33:53;;;;;;;2.03;1.10;;;7.50;99.90;;;;;;5067767;28;20114;-65
2023/03/27 10:36:20;;;;;;;3.13;1.20;;;7.60;99.90;;;;;;5068354;28;20055;-64
2023/03/27 10:39:04;;;;;;;4.35;1.10;;;7.60;99.90;;;;;;5074441;28;20059;-65
2023/03/27 10:41:37;;;;;;;3.80;1.23;;;7.70;99.90;;;;;;5073909;28;20437;-65
2023/03/27 10:44:13;;;;;;;3.72;1.20;;;7.70;99.90;;;;;;5070378;28;20132;-65
2023/03/27 10:46:41;;;;;;;2.70;1.05;;;7.90;99.90;;;;;;5070399;28;20052;-65
2023/03/27 10:49:23;;;;;;;2.10;0.95;;;7.90;99.90;;;;;;5069552;28;20109;-64
2023/03/27 10:52:25;;;;;;;6.85;1.70;;;7.80;99.90;;;;;;5070409;28;20060;-65
2023/03/27 10:55:00;;;;;;;5.32;1.10;;;7.80;99.90;;;;;;5071475;28;20443;-66
2023/03/27 10:57:29;;;;;;;3.80;1.17;;;7.90;99.90;;;;;;5071027;28;20072;-65
2023/03/27 11:00:06;;;;;;;2.22;0.98;;;7.90;99.50;;;;;;5073116;28;20059;-64
2023/03/27 11:03:02;;;;;;;2.38;1.05;;;8.00;99.10;;;;;;5054972;28;20064;-65
2023/03/27 11:05:35;;;;;;;2.90;1.10;;;8.00;99.80;;;;;;5074170;28;20057;-65
2023/03/27 11:08:07;;;;;;;3.35;1.00;;;8.10;99.90;;;;;;5066358;28;20056;-65
2023/03/27 11:10:40;;;;;;;2.67;0.98;;;8.10;99.90;;;;;;5065318;28;20127;-64
2023/03/27 11:13:15;;;;;;;3.55;1.05;;;8.20;99.90;;;;;;5073695;28;20444;-64
2023/03/27 11:15:59;;;;;;;2.30;1.30;;;8.20;99.90;;;;;;5066506;28;20060;-66
2023/03/27 11:18:47;;;;;;;4.78;1.30;;;8.30;99.90;;;;;;5066850;28;20048;-64
2023/03/27 11:21:21;;;;;;;5.05;1.33;;;8.20;99.90;;;;;;5047582;28;20045;-65
2023/03/27 11:23:58;;;;;;;3.67;1.10;;;8.20;99.90;;;;;;5073458;28;20049;-64
2023/03/27 11:26:48;;;;;;;6.53;1.25;;;8.30;99.90;;;;;;5073735;28;20113;-65
2023/03/27 11:29:27;;;;;;;7.80;1.20;;;8.30;99.90;;;;;;5073234;28;20057;-64
2023/03/27 11:31:58;;;;;;;2.33;1.10;;;8.50;99.90;;;;;;5074348;28;20453;-65
2023/03/27 11:34:35;;;;;;;2.47;1.08;;;8.70;99.90;;;;;;5053404;28;20495;-64
2023/03/27 11:37:22;;;;;;;2.72;1.30;;;8.70;99.90;;;;;;5056748;28;20099;-65
2023/03/27 11:39:48;;;;;;;5.85;1.40;;;8.90;99.90;;;;;;5072981;28;20044;-65
2023/03/27 11:42:16;;;;;;;3.28;1.20;;;8.90;99.90;;;;;;5072914;28;20041;-65
2023/03/27 11:44:44;;;;;;;6.97;1.60;;;8.90;99.90;;;;;;5073474;28;20052;-64
2023/03/27 11:47:36;;;;;;;5.43;1.25;;;8.50;99.90;;;;;;5074075;28;20056;-65
2023/03/27 11:50:21;;;;;;;2.55;1.13;;;7.50;99.90;;;;;;5072647;28;20060;-65
2023/03/27 11:53:16;;;;;;;4.80;1.25;;;7.30;99.90;;;;;;5072937;28;20056;-65
2023/03/27 11:56:00;;;;;;;4.95;1.38;;;7.10;99.90;;;;;;5074364;28;20049;-65
2023/03/27 11:58:48;;;;;;;3.83;1.30;;;6.80;99.90;;;;;;5073025;28;20048;-64
2023/03/27 12:01:53;;;;;;;2.55;1.10;;;6.40;99.90;;;;;;5055471;28;20056;-63
2023/03/27 12:04:50;;;;;;;4.38;1.88;;;6.20;99.90;;;;;;5057965;28;20045;-65
2023/03/27 12:07:41;;;;;;;3.67;1.58;;;6.40;99.90;;;;;;5052773;28;20072;-64
2023/03/27 12:10:17;;;;;;;5.78;1.48;;;6.70;99.90;;;;;;5052935;28;20041;-65
2023/03/27 12:12:57;;;;;;;5.25;1.27;;;7.10;99.90;;;;;;5060727;28;20063;-62
2023/03/27 12:15:53;;;;;;;6.03;2.10;;;7.30;99.90;;;;;;5072858;28;20048;-62
2023/03/27 12:18:31;;;;;;;3.83;1.58;;;7.50;99.90;;;;;;5073636;28;20290;-63
2023/03/27 12:21:42;;;;;;;9.90;2.55;;;7.80;99.90;;;;;;5071872;28;20048;-64
2023/03/27 12:24:17;;;;;;;5.05;1.60;;;8.00;99.90;;;;;;5072097;28;20045;-64
2023/03/27 12:27:04;;;;;;;8.93;2.10;;;8.10;99.90;;;;;;5073522;28;20044;-63
2023/03/27 12:29:40;;;;;;;8.70;2.13;;;8.20;99.90;;;;;;5055506;28;20391;-65
2023/03/27 12:32:21;;;;;;;5.38;1.48;;;8.30;99.90;;;;;;5073253;28;20109;-65
2023/03/27 12:35:02;;;;;;;4.97;1.55;;;8.40;99.90;;;;;;5072931;28;20053;-65
2023/03/27 12:37:41;;;;;;;5.15;1.52;;;8.40;99.90;;;;;;5079087;28;20052;-63
2023/03/27 12:40:36;;;;;;;4.00;1.50;;;8.50;99.90;;;;;;5075344;28;20056;-63
2023/03/27 12:43:27;;;;;;;5.00;1.52;;;8.30;99.90;;;;;;5080228;28;20049;-63
2023/03/27 12:46:11;;;;;;;7.47;2.17;;;8.30;99.90;;;;;;5073180;28;20045;-63
2023/03/27 12:49:06;;;;;;;3.88;1.30;;;8.10;99.90;;;;;;5071815;28;20063;-62
2023/03/27 12:51:49;;;;;;;5.55;1.92;;;7.90;99.90;;;;;;5052186;28;20053;-62
2023/03/27 12:54:23;;;;;;;6.05;1.20;;;7.80;99.90;;;;;;5087093;28;20049;-64
2023/03/27 12:57:04;;;;;;;4.72;1.40;;;8.00;99.90;;;;;;5055390;28;20078;-66
2023/03/27 12:59:51;;;;;;;5.07;1.55;;;8.20;99.90;;;;;;5054535;28;20048;-64
2023/03/27 13:02:38;;;;;;;9.32;2.15;;;8.10;99.90;;;;;;5054141;28;20063;-64
2023/03/27 13:05:09;;;;;;;8.65;2.38;;;8.10;99.90;;;;;;5049097;28;20339;-63
2023/03/27 13:08:25;;;;;;;6.80;1.80;;;7.90;99.90;;;;;;5064325;28;20049;-63
2023/03/27 13:10:56;;;;;;;8.85;1.98;;;7.60;99.90;;;;;;5050060;28;20064;-64
2023/03/27 13:13:51;;;;;;;9.52;2.05;;;7.50;99.90;;;;;;5071419;28;20048;-64
2023/03/27 13:16:27;;;;;;;8.40;2.20;;;7.40;99.90;;;;;;5072554;28;20097;-64
2023/03/27 13:19:21;;;;;;;7.97;1.60;;;7.50;99.90;;;;;;5072516;28;20056;-64
2023/03/27 13:22:06;;;;;;;5.78;1.70;;;7.40;99.90;;;;;;5054239;28;20048;-63
2023/03/27 13:24:48;;;;;;;4.15;1.95;;;7.40;99.90;;;;;;5034606;28;20056;-65
2023/03/27 13:27:33;;;;;;;7.53;2.13;;;7.50;99.90;;;;;;5034668;28;20041;-63
2023/03/27 13:29:59;;;;;;;7.57;2.28;;;7.60;99.90;;;;;;5034604;28;20461;-64
2023/03/27 13:32:33;;;;;;;9.65;2.72;;;7.80;99.90;;;;;;5054951;28;20060;-63
2023/03/27 13:35:03;;;;;;;7.57;2.20;;;7.90;99.90;;;;;;5054756;28;20055;-64